sensor_id;sensor_type;location;lat;lon;timestamp;P1;durP1;ratioP1;P2;durP2;ratioP2
7737;SDS011;29398;45.328;5.558;2023-02-28T00:00:32;11.55;;;10.35;;
7737;SDS011;29398;45.328;5.558;2023-02-28T00:01:34;11.35;;;10.07;;
7737;SDS011;29398;45.328;5.558;2023-02-28T00:02:36;11.77;;;10.63;;
7737;SDS011;29398;45.328;5.558;2023-02-28T00:03:38;12.50;;;11.05;;
7737;SDS011;29398;45.328;5.558;2023-02-28T00:04:39;11.57;;;10.38;;
7737;SDS011;29398;45.328;5.558;2023-02-28T00:05:41;11.75;;;10.20;;
7737;SDS011;29398;45.328;5.558;2023-02-28T00:06:42;11.23;;;10.13;;
7737;SDS011;29398;45.328;5.558;2023-02-28T00:07:44;11.50;;;10.13;;
7737;SDS011;29398;45.328;5.558;2023-02-28T00:08:46;11.27;;;9.77;;
7737;SDS011;29398;45.328;5.558;2023-02-28T00:09:48;11.43;;;10.20;;
7737;SDS011;29398;45.328;5.558;2023-02-28T00:10:49;11.57;;;10.25;;
7737;SDS011;29398;45.328;5.558;2023-02-28T00:11:52;11.70;;;10.52;;
7737;SDS011;29398;45.328;5.558;2023-02-28T00:12:55;11.80;;;10.63;;
7737;SDS011;29398;45.328;5.558;2023-02-28T00:14:00;13.77;;;10.88;;
7737;SDS011;29398;45.328;5.558;2023-02-28T00:15:05;12.32;;;11.02;;
7737;SDS011;29398;45.328;5.558;2023-02-28T00:16:07;12.52;;;10.48;;
7737;SDS011;29398;45.328;5.558;2023-02-28T00:17:10;12.32;;;10.20;;
7737;SDS011;29398;45.328;5.558;2023-02-28T00:18:11;13.35;;;10.65;;
7737;SDS011;29398;45.328;5.558;2023-02-28T00:19:14;12.50;;;10.85;;
7737;SDS011;29398;45.328;5.558;2023-02-28T00:20:16;12.20;;;10.60;;
7737;SDS011;29398;45.328;5.558;2023-02-28T00:21:17;12.57;;;11.18;;
7737;SDS011;29398;45.328;5.558;2023-02-28T00:22:20;11.57;;;10.35;;
7737;SDS011;29398;45.328;5.558;2023-02-28T00:23:21;11.55;;;10.35;;
7737;SDS011;29398;45.328;5.558;2023-02-28T00:24:24;11.25;;;10.15;;
7737;SDS011;29398;45.328;5.558;2023-02-28T00:25:25;12.20;;;11.00;;
7737;SDS011;29398;45.328;5.558;2023-02-28T00:26:27;11.65;;;10.05;;
7737;SDS011;29398;45.328;5.558;2023-02-28T00:27:30;11.68;;;10.50;;
7737;SDS011;29398;45.328;5.558;2023-02-28T00:28:32;11.00;;;9.90;;
7737;SDS011;29398;45.328;5.558;2023-02-28T00:29:33;10.88;;;9.77;;
7737;SDS011;29398;45.328;5.558;2023-02-28T00:30:35;11.15;;;9.93;;
7737;SDS011;29398;45.328;5.558;2023-02-28T00:31:38;11.15;;;10.02;;
7737;SDS011;29398;45.328;5.558;2023-02-28T00:32:41;12.38;;;11.07;;
7737;SDS011;29398;45.328;5.558;2023-02-28T00:33:42;11.75;;;10.55;;
7737;SDS011;29398;45.328;5.558;2023-02-28T00:34:44;11.65;;;10.40;;
7737;SDS011;29398;45.328;5.558;2023-02-28T00:35:45;11.57;;;10.40;;
7737;SDS011;29398;45.328;5.558;2023-02-28T00:36:48;11.60;;;10.50;;
7737;SDS011;29398;45.328;5.558;2023-02-28T00:37:49;11.63;;;10.43;;
7737;SDS011;29398;45.328;5.558;2023-02-28T00:38:51;11.45;;;10.32;;
7737;SDS011;29398;45.328;5.558;2023-02-28T00:39:53;11.98;;;10.77;;
7737;SDS011;29398;45.328;5.558;2023-02-28T00:40:56;11.98;;;10.77;;
7737;SDS011;29398;45.328;5.558;2023-02-28T00:41:59;11.05;;;9.85;;
7737;SDS011;29398;45.328;5.558;2023-02-28T00:43:02;11.57;;;10.10;;
7737;SDS011;29398;45.328;5.558;2023-02-28T00:44:05;10.98;;;9.88;;
7737;SDS011;29398;45.328;5.558;2023-02-28T00:45:06;11.48;;;10.30;;
7737;SDS011;29398;45.328;5.558;2023-02-28T00:46:11;11.68;;;10.25;;
7737;SDS011;29398;45.328;5.558;2023-02-28T00:47:13;11.63;;;10.05;;
7737;SDS011;29398;45.328;5.558;2023-02-28T00:48:15;10.88;;;9.88;;
7737;SDS011;29398;45.328;5.558;2023-02-28T00:49:16;10.82;;;9.73;;
7737;SDS011;29398;45.328;5.558;2023-02-28T00:50:19;11.63;;;10.43;;
7737;SDS011;29398;45.328;5.558;2023-02-28T00:51:20;12.75;;;10.82;;
7737;SDS011;29398;45.328;5.558;2023-02-28T00:52:22;11.68;;;9.73;;
7737;SDS011;29398;45.328;5.558;2023-02-28T00:53:23;11.60;;;10.38;;
7737;SDS011;29398;45.328;5.558;2023-02-28T00:54:25;11.75;;;10.55;;
7737;SDS011;29398;45.328;5.558;2023-02-28T00:55:27;11.75;;;10.63;;
7737;SDS011;29398;45.328;5.558;2023-02-28T00:56:29;11.23;;;10.23;;
7737;SDS011;29398;45.328;5.558;2023-02-28T00:57:30;11.15;;;9.88;;
7737;SDS011;29398;45.328;5.558;2023-02-28T00:58:33;10.70;;;9.63;;
7737;SDS011;29398;45.328;5.558;2023-02-28T00:59:34;11.27;;;10.15;;
7737;SDS011;29398;45.328;5.558;2023-02-28T01:00:37;11.65;;;10.55;;
7737;SDS011;29398;45.328;5.558;2023-02-28T01:01:39;11.27;;;10.18;;
7737;SDS011;29398;45.328;5.558;2023-02-28T01:02:40;12.35;;;11.05;;
7737;SDS011;29398;45.328;5.558;2023-02-28T01:03:42;11.45;;;10.13;;
7737;SDS011;29398;45.328;5.558;2023-02-28T01:04:43;11.95;;;10.73;;
7737;SDS011;29398;45.328;5.558;2023-02-28T01:05:45;12.10;;;10.98;;
7737;SDS011;29398;45.328;5.558;2023-02-28T01:06:47;12.25;;;11.02;;
7737;SDS011;29398;45.328;5.558;2023-02-28T01:07:49;12.02;;;10.88;;
7737;SDS011;29398;45.328;5.558;2023-02-28T01:08:50;11.57;;;10.48;;
7737;SDS011;29398;45.328;5.558;2023-02-28T01:09:52;12.25;;;11.02;;
7737;SDS011;29398;45.328;5.558;2023-02-28T01:10:53;13.15;;;11.75;;
7737;SDS011;29398;45.328;5.558;2023-02-28T01:11:56;11.10;;;10.00;;
7737;SDS011;29398;45.328;5.558;2023-02-28T01:12:57;12.98;;;10.85;;
7737;SDS011;29398;45.328;5.558;2023-02-28T01:14:01;12.55;;;11.25;;
7737;SDS011;29398;45.328;5.558;2023-02-28T01:15:04;11.90;;;10.57;;
7737;SDS011;29398;45.328;5.558;2023-02-28T01:16:07;12.05;;;10.85;;
7737;SDS011;29398;45.328;5.558;2023-02-28T01:17:08;13.00;;;11.25;;
7737;SDS011;29398;45.328;5.558;2023-02-28T01:18:11;9.15;;;8.25;;
7737;SDS011;29398;45.328;5.558;2023-02-28T01:19:12;11.70;;;10.50;;
7737;SDS011;29398;45.328;5.558;2023-02-28T01:20:14;12.93;;;10.75;;
7737;SDS011;29398;45.328;5.558;2023-02-28T01:21:16;13.38;;;11.50;;
7737;SDS011;29398;45.328;5.558;2023-02-28T01:22:19;12.02;;;10.65;;
7737;SDS011;29398;45.328;5.558;2023-02-28T01:23:21;11.63;;;10.52;;
7737;SDS011;29398;45.328;5.558;2023-02-28T01:24:24;12.18;;;10.98;;
7737;SDS011;29398;45.328;5.558;2023-02-28T01:25:25;13.68;;;11.10;;
7737;SDS011;29398;45.328;5.558;2023-02-28T01:26:27;13.00;;;11.70;;
7737;SDS011;29398;45.328;5.558;2023-02-28T01:27:28;11.77;;;10.68;;
7737;SDS011;29398;45.328;5.558;2023-02-28T01:28:30;12.25;;;10.50;;
7737;SDS011;29398;45.328;5.558;2023-02-28T01:29:33;11.05;;;9.98;;
7737;SDS011;29398;45.328;5.558;2023-02-28T01:30:35;11.52;;;10.25;;
7737;SDS011;29398;45.328;5.558;2023-02-28T01:31:36;13.73;;;10.85;;
7737;SDS011;29398;45.328;5.558;2023-02-28T01:32:38;12.65;;;11.38;;
7737;SDS011;29398;45.328;5.558;2023-02-28T01:33:39;12.18;;;10.98;;
7737;SDS011;29398;45.328;5.558;2023-02-28T01:34:42;11.98;;;10.63;;
7737;SDS011;29398;45.328;5.558;2023-02-28T01:35:43;12.70;;;11.40;;
7737;SDS011;29398;45.328;5.558;2023-02-28T01:36:45;13.35;;;11.95;;
7737;SDS011;29398;45.328;5.558;2023-02-28T01:37:46;12.70;;;11.30;;
7737;SDS011;29398;45.328;5.558;2023-02-28T01:38:48;13.55;;;12.15;;
7737;SDS011;29398;45.328;5.558;2023-02-28T01:39:50;13.20;;;11.35;;
7737;SDS011;29398;45.328;5.558;2023-02-28T01:40:54;13.95;;;12.40;;
7737;SDS011;29398;45.328;5.558;2023-02-28T01:41:55;14.20;;;12.68;;
7737;SDS011;29398;45.328;5.558;2023-02-28T01:42:58;14.30;;;12.80;;
7737;SDS011;29398;45.328;5.558;2023-02-28T01:44:00;14.90;;;11.75;;
7737;SDS011;29398;45.328;5.558;2023-02-28T01:45:14;13.13;;;11.73;;
7737;SDS011;29398;45.328;5.558;2023-02-28T01:46:21;13.52;;;11.70;;
7737;SDS011;29398;45.328;5.558;2023-02-28T01:47:23;13.80;;;12.40;;
7737;SDS011;29398;45.328;5.558;2023-02-28T01:48:27;13.32;;;11.93;;
7737;SDS011;29398;45.328;5.558;2023-02-28T01:49:33;13.38;;;11.98;;
7737;SDS011;29398;45.328;5.558;2023-02-28T01:50:35;13.93;;;11.60;;
7737;SDS011;29398;45.328;5.558;2023-02-28T01:51:41;12.48;;;11.27;;
7737;SDS011;29398;45.328;5.558;2023-02-28T01:52:46;14.75;;;11.52;;
7737;SDS011;29398;45.328;5.558;2023-02-28T01:53:51;13.77;;;11.75;;
7737;SDS011;29398;45.328;5.558;2023-02-28T01:54:59;12.35;;;11.15;;
7737;SDS011;29398;45.328;5.558;2023-02-28T01:56:04;12.15;;;10.93;;
7737;SDS011;29398;45.328;5.558;2023-02-28T01:57:09;13.73;;;12.27;;
7737;SDS011;29398;45.328;5.558;2023-02-28T01:58:16;13.23;;;11.93;;
7737;SDS011;29398;45.328;5.558;2023-02-28T01:59:19;11.65;;;10.57;;
7737;SDS011;29398;45.328;5.558;2023-02-28T02:00:27;12.52;;;11.23;;
7737;SDS011;29398;45.328;5.558;2023-02-28T02:01:30;13.68;;;12.15;;
7737;SDS011;29398;45.328;5.558;2023-02-28T02:02:35;14.63;;;11.85;;
7737;SDS011;29398;45.328;5.558;2023-02-28T02:03:37;13.57;;;12.15;;
7737;SDS011;29398;45.328;5.558;2023-02-28T02:04:40;13.25;;;11.95;;
7737;SDS011;29398;45.328;5.558;2023-02-28T02:05:46;14.00;;;12.60;;
7737;SDS011;29398;45.328;5.558;2023-02-28T02:06:48;14.02;;;12.40;;
7737;SDS011;29398;45.328;5.558;2023-02-28T02:07:50;13.32;;;12.02;;
7737;SDS011;29398;45.328;5.558;2023-02-28T02:08:56;16.33;;;13.23;;
7737;SDS011;29398;45.328;5.558;2023-02-28T02:10:01;12.90;;;11.60;;
7737;SDS011;29398;45.328;5.558;2023-02-28T02:11:07;12.95;;;11.75;;
7737;SDS011;29398;45.328;5.558;2023-02-28T02:12:13;13.05;;;11.70;;
7737;SDS011;29398;45.328;5.558;2023-02-28T02:13:30;11.93;;;10.82;;
7737;SDS011;29398;45.328;5.558;2023-02-28T02:14:44;12.68;;;11.45;;
7737;SDS011;29398;45.328;5.558;2023-02-28T02:16:00;12.95;;;11.65;;
7737;SDS011;29398;45.328;5.558;2023-02-28T02:17:14;13.52;;;12.15;;
7737;SDS011;29398;45.328;5.558;2023-02-28T02:18:24;13.02;;;11.73;;
7737;SDS011;29398;45.328;5.558;2023-02-28T02:19:41;13.55;;;12.15;;
7737;SDS011;29398;45.328;5.558;2023-02-28T02:21:06;13.07;;;11.77;;
7737;SDS011;29398;45.328;5.558;2023-02-28T02:24:28;13.40;;;12.10;;
7737;SDS011;29398;45.328;5.558;2023-02-28T02:26:03;13.43;;;12.13;;
7737;SDS011;29398;45.328;5.558;2023-02-28T02:27:17;12.98;;;11.77;;
7737;SDS011;29398;45.328;5.558;2023-02-28T02:28:46;12.80;;;11.50;;
7737;SDS011;29398;45.328;5.558;2023-02-28T02:30:17;13.63;;;12.27;;
7737;SDS011;29398;45.328;5.558;2023-02-28T02:33:25;12.80;;;11.60;;
7737;SDS011;29398;45.328;5.558;2023-02-28T02:34:57;13.38;;;12.07;;
7737;SDS011;29398;45.328;5.558;2023-02-28T02:36:10;13.10;;;11.82;;
7737;SDS011;29398;45.328;5.558;2023-02-28T02:37:17;13.77;;;12.38;;
7737;SDS011;29398;45.328;5.558;2023-02-28T02:38:31;12.88;;;11.68;;
7737;SDS011;29398;45.328;5.558;2023-02-28T02:39:40;12.77;;;11.48;;
7737;SDS011;29398;45.328;5.558;2023-02-28T02:41:54;12.38;;;11.18;;
7737;SDS011;29398;45.328;5.558;2023-02-28T02:43:01;12.43;;;11.10;;
7737;SDS011;29398;45.328;5.558;2023-02-28T02:44:07;11.43;;;10.32;;
7737;SDS011;29398;45.328;5.558;2023-02-28T02:45:14;12.02;;;10.70;;
7737;SDS011;29398;45.328;5.558;2023-02-28T02:46:24;11.20;;;10.10;;
7737;SDS011;29398;45.328;5.558;2023-02-28T02:47:29;11.50;;;10.40;;
7737;SDS011;29398;45.328;5.558;2023-02-28T02:48:33;11.85;;;10.75;;
7737;SDS011;29398;45.328;5.558;2023-02-28T02:49:37;11.38;;;10.27;;
7737;SDS011;29398;45.328;5.558;2023-02-28T02:50:43;12.00;;;10.85;;
7737;SDS011;29398;45.328;5.558;2023-02-28T02:51:46;11.90;;;10.80;;
7737;SDS011;29398;45.328;5.558;2023-02-28T02:52:51;11.02;;;10.02;;
7737;SDS011;29398;45.328;5.558;2023-02-28T02:53:57;11.40;;;10.23;;
7737;SDS011;29398;45.328;5.558;2023-02-28T02:55:07;11.40;;;10.30;;
7737;SDS011;29398;45.328;5.558;2023-02-28T02:56:12;11.30;;;10.30;;
7737;SDS011;29398;45.328;5.558;2023-02-28T02:57:17;11.23;;;10.23;;
7737;SDS011;29398;45.328;5.558;2023-02-28T02:58:24;10.73;;;9.63;;
7737;SDS011;29398;45.328;5.558;2023-02-28T02:59:28;10.63;;;9.57;;
7737;SDS011;29398;45.328;5.558;2023-02-28T03:00:32;10.18;;;9.18;;
7737;SDS011;29398;45.328;5.558;2023-02-28T03:01:38;11.57;;;10.38;;
7737;SDS011;29398;45.328;5.558;2023-02-28T03:02:42;11.90;;;10.80;;
7737;SDS011;29398;45.328;5.558;2023-02-28T03:03:45;12.13;;;10.88;;
7737;SDS011;29398;45.328;5.558;2023-02-28T03:04:48;11.18;;;10.05;;
7737;SDS011;29398;45.328;5.558;2023-02-28T03:05:57;11.05;;;9.95;;
7737;SDS011;29398;45.328;5.558;2023-02-28T03:06:59;11.65;;;10.45;;
7737;SDS011;29398;45.328;5.558;2023-02-28T03:08:02;11.40;;;10.32;;
7737;SDS011;29398;45.328;5.558;2023-02-28T03:09:05;11.18;;;9.98;;
7737;SDS011;29398;45.328;5.558;2023-02-28T03:11:31;11.32;;;10.23;;
7737;SDS011;29398;45.328;5.558;2023-02-28T03:12:39;11.18;;;10.07;;
7737;SDS011;29398;45.328;5.558;2023-02-28T03:15:24;11.35;;;10.25;;
7737;SDS011;29398;45.328;5.558;2023-02-28T03:16:33;11.20;;;10.20;;
7737;SDS011;29398;45.328;5.558;2023-02-28T03:17:50;11.88;;;10.75;;
7737;SDS011;29398;45.328;5.558;2023-02-28T03:19:08;11.20;;;10.10;;
7737;SDS011;29398;45.328;5.558;2023-02-28T03:20:25;12.70;;;11.40;;
7737;SDS011;29398;45.328;5.558;2023-02-28T03:21:38;11.80;;;10.00;;
7737;SDS011;29398;45.328;5.558;2023-02-28T03:22:51;11.82;;;10.73;;
7737;SDS011;29398;45.328;5.558;2023-02-28T03:24:01;11.77;;;10.75;;
7737;SDS011;29398;45.328;5.558;2023-02-28T03:25:07;11.88;;;10.77;;
7737;SDS011;29398;45.328;5.558;2023-02-28T03:26:17;12.60;;;11.30;;
7737;SDS011;29398;45.328;5.558;2023-02-28T03:27:23;12.38;;;11.18;;
7737;SDS011;29398;45.328;5.558;2023-02-28T03:28:31;12.02;;;10.93;;
7737;SDS011;29398;45.328;5.558;2023-02-28T03:29:39;11.80;;;10.65;;
7737;SDS011;29398;45.328;5.558;2023-02-28T03:30:46;11.75;;;10.57;;
7737;SDS011;29398;45.328;5.558;2023-02-28T03:31:54;11.95;;;10.75;;
7737;SDS011;29398;45.328;5.558;2023-02-28T03:33:02;12.13;;;10.93;;
7737;SDS011;29398;45.328;5.558;2023-02-28T03:34:08;12.30;;;11.23;;
7737;SDS011;29398;45.328;5.558;2023-02-28T03:35:14;11.60;;;10.40;;
7737;SDS011;29398;45.328;5.558;2023-02-28T03:36:22;12.80;;;11.50;;
7737;SDS011;29398;45.328;5.558;2023-02-28T03:37:29;11.02;;;10.00;;
7737;SDS011;29398;45.328;5.558;2023-02-28T03:38:37;11.05;;;10.05;;
7737;SDS011;29398;45.328;5.558;2023-02-28T03:39:42;11.65;;;10.55;;
7737;SDS011;29398;45.328;5.558;2023-02-28T03:40:48;12.10;;;10.95;;
7737;SDS011;29398;45.328;5.558;2023-02-28T03:41:54;11.65;;;10.55;;
7737;SDS011;29398;45.328;5.558;2023-02-28T03:42:59;11.55;;;10.35;;
7737;SDS011;29398;45.328;5.558;2023-02-28T03:44:06;12.07;;;10.88;;
7737;SDS011;29398;45.328;5.558;2023-02-28T03:45:16;11.63;;;10.43;;
7737;SDS011;29398;45.328;5.558;2023-02-28T03:46:21;11.48;;;10.15;;
7737;SDS011;29398;45.328;5.558;2023-02-28T03:47:27;12.45;;;11.00;;
7737;SDS011;29398;45.328;5.558;2023-02-28T03:48:36;12.00;;;10.80;;
7737;SDS011;29398;45.328;5.558;2023-02-28T03:49:41;10.88;;;9.77;;
7737;SDS011;29398;45.328;5.558;2023-02-28T03:50:48;11.98;;;10.75;;
7737;SDS011;29398;45.328;5.558;2023-02-28T03:51:52;12.23;;;10.93;;
7737;SDS011;29398;45.328;5.558;2023-02-28T03:53:00;12.20;;;11.05;;
7737;SDS011;29398;45.328;5.558;2023-02-28T03:54:06;12.07;;;10.93;;
7737;SDS011;29398;45.328;5.558;2023-02-28T03:55:11;12.07;;;10.88;;
7737;SDS011;29398;45.328;5.558;2023-02-28T03:56:15;11.32;;;10.23;;
7737;SDS011;29398;45.328;5.558;2023-02-28T03:57:22;12.65;;;11.35;;
7737;SDS011;29398;45.328;5.558;2023-02-28T03:58:29;12.18;;;10.98;;
7737;SDS011;29398;45.328;5.558;2023-02-28T03:59:34;12.48;;;11.20;;
7737;SDS011;29398;45.328;5.558;2023-02-28T04:00:38;12.27;;;11.07;;
7737;SDS011;29398;45.328;5.558;2023-02-28T04:01:44;12.35;;;11.07;;
7737;SDS011;29398;45.328;5.558;2023-02-28T04:02:46;11.73;;;10.70;;
7737;SDS011;29398;45.328;5.558;2023-02-28T04:03:52;13.30;;;12.00;;
7737;SDS011;29398;45.328;5.558;2023-02-28T04:04:53;13.65;;;12.25;;
7737;SDS011;29398;45.328;5.558;2023-02-28T04:05:56;12.35;;;11.25;;
7737;SDS011;29398;45.328;5.558;2023-02-28T04:07:01;12.20;;;11.00;;
7737;SDS011;29398;45.328;5.558;2023-02-28T04:08:07;12.55;;;11.45;;
7737;SDS011;29398;45.328;5.558;2023-02-28T04:09:09;12.60;;;11.30;;
7737;SDS011;29398;45.328;5.558;2023-02-28T04:10:11;13.38;;;12.10;;
7737;SDS011;29398;45.328;5.558;2023-02-28T04:11:17;13.20;;;12.00;;
7737;SDS011;29398;45.328;5.558;2023-02-28T04:12:22;13.20;;;11.90;;
7737;SDS011;29398;45.328;5.558;2023-02-28T04:13:23;12.68;;;11.38;;
7737;SDS011;29398;45.328;5.558;2023-02-28T04:14:25;13.55;;;12.32;;
7737;SDS011;29398;45.328;5.558;2023-02-28T04:15:28;12.77;;;11.48;;
7737;SDS011;29398;45.328;5.558;2023-02-28T04:16:29;14.93;;;13.43;;
7737;SDS011;29398;45.328;5.558;2023-02-28T04:17:31;14.48;;;12.82;;
7737;SDS011;29398;45.328;5.558;2023-02-28T04:18:32;14.43;;;12.93;;
7737;SDS011;29398;45.328;5.558;2023-02-28T04:19:34;13.27;;;12.07;;
7737;SDS011;29398;45.328;5.558;2023-02-28T04:20:36;15.35;;;13.25;;
7737;SDS011;29398;45.328;5.558;2023-02-28T04:21:39;13.10;;;11.90;;
7737;SDS011;29398;45.328;5.558;2023-02-28T04:22:41;15.20;;;13.70;;
7737;SDS011;29398;45.328;5.558;2023-02-28T04:23:45;15.10;;;13.63;;
7737;SDS011;29398;45.328;5.558;2023-02-28T04:24:46;14.55;;;13.23;;
7737;SDS011;29398;45.328;5.558;2023-02-28T04:25:48;13.38;;;12.18;;
7737;SDS011;29398;45.328;5.558;2023-02-28T04:26:51;15.68;;;13.48;;
7737;SDS011;29398;45.328;5.558;2023-02-28T04:27:54;13.85;;;12.55;;
7737;SDS011;29398;45.328;5.558;2023-02-28T04:28:55;13.70;;;12.40;;
7737;SDS011;29398;45.328;5.558;2023-02-28T04:29:57;13.82;;;12.43;;
7737;SDS011;29398;45.328;5.558;2023-02-28T04:31:01;14.35;;;12.68;;
7737;SDS011;29398;45.328;5.558;2023-02-28T04:32:03;13.88;;;12.48;;
7737;SDS011;29398;45.328;5.558;2023-02-28T04:33:06;14.45;;;13.02;;
7737;SDS011;29398;45.328;5.558;2023-02-28T04:34:07;14.30;;;12.95;;
7737;SDS011;29398;45.328;5.558;2023-02-28T04:35:09;14.38;;;12.98;;
7737;SDS011;29398;45.328;5.558;2023-02-28T04:36:10;14.02;;;12.52;;
7737;SDS011;29398;45.328;5.558;2023-02-28T04:37:13;14.25;;;12.82;;
7737;SDS011;29398;45.328;5.558;2023-02-28T04:38:14;14.57;;;13.27;;
7737;SDS011;29398;45.328;5.558;2023-02-28T04:39:18;14.60;;;13.20;;
7737;SDS011;29398;45.328;5.558;2023-02-28T04:40:19;13.55;;;12.35;;
7737;SDS011;29398;45.328;5.558;2023-02-28T04:41:21;13.75;;;12.27;;
7737;SDS011;29398;45.328;5.558;2023-02-28T04:42:23;14.45;;;12.57;;
7737;SDS011;29398;45.328;5.558;2023-02-28T04:43:25;13.25;;;12.05;;
7737;SDS011;29398;45.328;5.558;2023-02-28T04:44:27;14.07;;;12.77;;
7737;SDS011;29398;45.328;5.558;2023-02-28T04:45:29;14.48;;;12.60;;
7737;SDS011;29398;45.328;5.558;2023-02-28T04:46:32;14.93;;;13.45;;
7737;SDS011;29398;45.328;5.558;2023-02-28T04:47:34;15.52;;;14.07;;
7737;SDS011;29398;45.328;5.558;2023-02-28T04:48:36;14.02;;;12.73;;
7737;SDS011;29398;45.328;5.558;2023-02-28T04:49:38;14.00;;;12.60;;
7737;SDS011;29398;45.328;5.558;2023-02-28T04:50:41;14.75;;;13.30;;
7737;SDS011;29398;45.328;5.558;2023-02-28T04:51:43;14.55;;;13.13;;
7737;SDS011;29398;45.328;5.558;2023-02-28T04:52:44;13.48;;;12.27;;
7737;SDS011;29398;45.328;5.558;2023-02-28T04:53:47;14.25;;;12.75;;
7737;SDS011;29398;45.328;5.558;2023-02-28T04:54:49;14.10;;;12.80;;
7737;SDS011;29398;45.328;5.558;2023-02-28T04:55:51;13.85;;;12.48;;
7737;SDS011;29398;45.328;5.558;2023-02-28T04:56:52;13.20;;;12.00;;
7737;SDS011;29398;45.328;5.558;2023-02-28T04:57:55;13.32;;;12.13;;
7737;SDS011;29398;45.328;5.558;2023-02-28T04:58:56;13.40;;;12.30;;
7737;SDS011;29398;45.328;5.558;2023-02-28T04:59:58;13.30;;;12.18;;
7737;SDS011;29398;45.328;5.558;2023-02-28T05:01:03;13.48;;;12.18;;
7737;SDS011;29398;45.328;5.558;2023-02-28T05:02:12;13.95;;;12.73;;
7737;SDS011;29398;45.328;5.558;2023-02-28T05:03:14;13.85;;;12.52;;
7737;SDS011;29398;45.328;5.558;2023-02-28T05:04:16;13.45;;;12.25;;
7737;SDS011;29398;45.328;5.558;2023-02-28T05:05:18;12.93;;;11.73;;
7737;SDS011;29398;45.328;5.558;2023-02-28T05:06:19;13.25;;;12.05;;
7737;SDS011;29398;45.328;5.558;2023-02-28T05:07:23;14.13;;;12.73;;
7737;SDS011;29398;45.328;5.558;2023-02-28T05:08:24;14.35;;;13.05;;
7737;SDS011;29398;45.328;5.558;2023-02-28T05:09:29;13.82;;;12.55;;
7737;SDS011;29398;45.328;5.558;2023-02-28T05:10:32;14.48;;;12.98;;
7737;SDS011;29398;45.328;5.558;2023-02-28T05:11:34;14.40;;;13.00;;
7737;SDS011;29398;45.328;5.558;2023-02-28T05:12:36;13.25;;;12.05;;
7737;SDS011;29398;45.328;5.558;2023-02-28T05:13:39;13.45;;;12.20;;
7737;SDS011;29398;45.328;5.558;2023-02-28T05:14:40;14.07;;;12.77;;
7737;SDS011;29398;45.328;5.558;2023-02-28T05:15:42;14.02;;;12.65;;
7737;SDS011;29398;45.328;5.558;2023-02-28T05:16:43;13.68;;;12.40;;
7737;SDS011;29398;45.328;5.558;2023-02-28T05:17:45;13.57;;;12.27;;
7737;SDS011;29398;45.328;5.558;2023-02-28T05:18:46;16.35;;;12.25;;
7737;SDS011;29398;45.328;5.558;2023-02-28T05:19:48;13.70;;;12.57;;
7737;SDS011;29398;45.328;5.558;2023-02-28T05:20:49;13.70;;;12.40;;
7737;SDS011;29398;45.328;5.558;2023-02-28T05:21:52;13.05;;;11.90;;
7737;SDS011;29398;45.328;5.558;2023-02-28T05:22:55;14.63;;;13.15;;
7737;SDS011;29398;45.328;5.558;2023-02-28T05:23:58;13.55;;;12.35;;
7737;SDS011;29398;45.328;5.558;2023-02-28T05:25:01;14.45;;;13.02;;
7737;SDS011;29398;45.328;5.558;2023-02-28T05:26:04;14.73;;;13.32;;
7737;SDS011;29398;45.328;5.558;2023-02-28T05:27:05;14.25;;;12.95;;
7737;SDS011;29398;45.328;5.558;2023-02-28T05:28:07;13.80;;;12.60;;
7737;SDS011;29398;45.328;5.558;2023-02-28T05:29:09;13.38;;;12.18;;
7737;SDS011;29398;45.328;5.558;2023-02-28T05:30:11;16.08;;;13.32;;
7737;SDS011;29398;45.328;5.558;2023-02-28T05:31:13;14.30;;;13.00;;
7737;SDS011;29398;45.328;5.558;2023-02-28T05:32:15;14.50;;;13.20;;
7737;SDS011;29398;45.328;5.558;2023-02-28T05:33:17;13.80;;;12.52;;
7737;SDS011;29398;45.328;5.558;2023-02-28T05:34:18;13.88;;;12.52;;
7737;SDS011;29398;45.328;5.558;2023-02-28T05:35:21;14.65;;;13.25;;
7737;SDS011;29398;45.328;5.558;2023-02-28T05:36:22;14.38;;;13.07;;
7737;SDS011;29398;45.328;5.558;2023-02-28T05:37:24;14.35;;;13.05;;
7737;SDS011;29398;45.328;5.558;2023-02-28T05:38:25;14.30;;;13.00;;
7737;SDS011;29398;45.328;5.558;2023-02-28T05:39:27;14.50;;;13.15;;
7737;SDS011;29398;45.328;5.558;2023-02-28T05:40:29;14.38;;;13.02;;
7737;SDS011;29398;45.328;5.558;2023-02-28T05:41:32;14.27;;;12.88;;
7737;SDS011;29398;45.328;5.558;2023-02-28T05:42:34;13.85;;;12.48;;
7737;SDS011;29398;45.328;5.558;2023-02-28T05:43:35;14.55;;;13.30;;
7737;SDS011;29398;45.328;5.558;2023-02-28T05:44:38;14.32;;;13.02;;
7737;SDS011;29398;45.328;5.558;2023-02-28T05:45:39;14.73;;;13.32;;
7737;SDS011;29398;45.328;5.558;2023-02-28T05:46:41;14.35;;;13.05;;
7737;SDS011;29398;45.328;5.558;2023-02-28T05:47:42;14.48;;;13.10;;
7737;SDS011;29398;45.328;5.558;2023-02-28T05:48:46;14.48;;;13.20;;
7737;SDS011;29398;45.328;5.558;2023-02-28T05:49:48;15.18;;;13.68;;
7737;SDS011;29398;45.328;5.558;2023-02-28T05:50:50;14.43;;;13.02;;
7737;SDS011;29398;45.328;5.558;2023-02-28T05:51:51;14.73;;;13.35;;
7737;SDS011;29398;45.328;5.558;2023-02-28T05:52:53;14.50;;;13.07;;
7737;SDS011;29398;45.328;5.558;2023-02-28T05:53:54;15.82;;;14.23;;
7737;SDS011;29398;45.328;5.558;2023-02-28T05:55:00;15.32;;;13.73;;
7737;SDS011;29398;45.328;5.558;2023-02-28T05:56:01;14.95;;;13.18;;
7737;SDS011;29398;45.328;5.558;2023-02-28T05:57:05;14.73;;;13.32;;
7737;SDS011;29398;45.328;5.558;2023-02-28T05:58:06;13.43;;;12.23;;
7737;SDS011;29398;45.328;5.558;2023-02-28T05:59:08;13.85;;;12.48;;
7737;SDS011;29398;45.328;5.558;2023-02-28T06:00:11;14.50;;;13.07;;
7737;SDS011;29398;45.328;5.558;2023-02-28T06:01:22;14.63;;;13.32;;
7737;SDS011;29398;45.328;5.558;2023-02-28T06:02:27;14.68;;;13.27;;
7737;SDS011;29398;45.328;5.558;2023-02-28T06:03:28;14.88;;;13.25;;
7737;SDS011;29398;45.328;5.558;2023-02-28T06:04:31;14.68;;;13.35;;
7737;SDS011;29398;45.328;5.558;2023-02-28T06:05:32;15.93;;;13.82;;
7737;SDS011;29398;45.328;5.558;2023-02-28T06:06:34;13.30;;;12.10;;
7737;SDS011;29398;45.328;5.558;2023-02-28T06:07:37;14.60;;;13.27;;
7737;SDS011;29398;45.328;5.558;2023-02-28T06:08:39;14.48;;;13.13;;
7737;SDS011;29398;45.328;5.558;2023-02-28T06:09:40;14.07;;;12.82;;
7737;SDS011;29398;45.328;5.558;2023-02-28T06:10:42;14.27;;;12.88;;
7737;SDS011;29398;45.328;5.558;2023-02-28T06:11:43;14.65;;;13.32;;
7737;SDS011;29398;45.328;5.558;2023-02-28T06:12:47;13.90;;;12.60;;
7737;SDS011;29398;45.328;5.558;2023-02-28T06:13:48;13.98;;;12.57;;
7737;SDS011;29398;45.328;5.558;2023-02-28T06:14:50;14.45;;;13.15;;
7737;SDS011;29398;45.328;5.558;2023-02-28T06:15:51;15.23;;;13.70;;
7737;SDS011;29398;45.328;5.558;2023-02-28T06:16:53;14.93;;;13.60;;
7737;SDS011;29398;45.328;5.558;2023-02-28T06:17:54;13.43;;;12.23;;
7737;SDS011;29398;45.328;5.558;2023-02-28T06:18:57;14.27;;;12.90;;
7737;SDS011;29398;45.328;5.558;2023-02-28T06:19:59;14.18;;;12.88;;
7737;SDS011;29398;45.328;5.558;2023-02-28T06:21:02;15.10;;;13.70;;
7737;SDS011;29398;45.328;5.558;2023-02-28T06:22:03;14.23;;;12.98;;
7737;SDS011;29398;45.328;5.558;2023-02-28T06:23:05;15.07;;;13.68;;
7737;SDS011;29398;45.328;5.558;2023-02-28T06:24:07;15.18;;;13.77;;
7737;SDS011;29398;45.328;5.558;2023-02-28T06:25:09;13.98;;;12.68;;
7737;SDS011;29398;45.328;5.558;2023-02-28T06:26:11;14.52;;;13.23;;
7737;SDS011;29398;45.328;5.558;2023-02-28T06:27:13;14.38;;;13.05;;
7737;SDS011;29398;45.328;5.558;2023-02-28T06:28:15;14.50;;;12.73;;
7737;SDS011;29398;45.328;5.558;2023-02-28T06:29:18;14.45;;;13.05;;